sensor_id;sensor_type;location;lat;lon;timestamp;P1;durP1;ratioP1;P2;durP2;ratioP2
52564;SDS011;38460;53.106;7.004;2024-02-15T00:02:03;41.42;;;18.70;;
52564;SDS011;38460;53.106;7.004;2024-02-15T00:04:29;41.58;;;20.23;;
52564;SDS011;38460;53.106;7.004;2024-02-15T00:06:57;41.10;;;20.00;;
52564;SDS011;38460;53.106;7.004;2024-02-15T00:09:22;36.00;;;18.45;;
52564;SDS011;38460;53.106;7.004;2024-02-15T00:11:48;40.35;;;19.52;;
52564;SDS011;38460;53.106;7.004;2024-02-15T00:14:14;40.17;;;18.52;;
52564;SDS011;38460;53.106;7.004;2024-02-15T00:16:39;39.00;;;20.33;;
52564;SDS011;38460;53.106;7.004;2024-02-15T00:19:05;40.65;;;19.60;;
52564;SDS011;38460;53.106;7.004;2024-02-15T00:21:32;41.30;;;21.13;;
52564;SDS011;38460;53.106;7.004;2024-02-15T00:23:58;38.90;;;19.20;;
52564;SDS011;38460;53.106;7.004;2024-02-15T00:26:25;35.00;;;18.05;;
52564;SDS011;38460;53.106;7.004;2024-02-15T00:28:50;39.47;;;18.67;;
52564;SDS011;38460;53.106;7.004;2024-02-15T00:31:16;42.65;;;18.80;;
52564;SDS011;38460;53.106;7.004;2024-02-15T00:33:43;43.47;;;21.02;;
52564;SDS011;38460;53.106;7.004;2024-02-15T00:36:09;39.40;;;20.15;;
52564;SDS011;38460;53.106;7.004;2024-02-15T00:38:35;35.58;;;19.02;;
52564;SDS011;38460;53.106;7.004;2024-02-15T00:41:02;41.95;;;20.70;;
52564;SDS011;38460;53.106;7.004;2024-02-15T00:43:28;41.70;;;19.52;;
52564;SDS011;38460;53.106;7.004;2024-02-15T00:45:54;44.05;;;21.02;;
52564;SDS011;38460;53.106;7.004;2024-02-15T00:48:19;41.33;;;19.33;;
52564;SDS011;38460;53.106;7.004;2024-02-15T00:50:45;43.08;;;19.42;;
52564;SDS011;38460;53.106;7.004;2024-02-15T00:53:11;42.58;;;19.67;;
52564;SDS011;38460;53.106;7.004;2024-02-15T00:55:37;37.55;;;18.55;;
52564;SDS011;38460;53.106;7.004;2024-02-15T00:58:03;40.53;;;19.90;;
52564;SDS011;38460;53.106;7.004;2024-02-15T01:00:29;44.50;;;19.80;;
52564;SDS011;38460;53.106;7.004;2024-02-15T01:02:57;45.58;;;21.27;;
52564;SDS011;38460;53.106;7.004;2024-02-15T01:05:23;42.63;;;20.42;;
52564;SDS011;38460;53.106;7.004;2024-02-15T01:07:49;39.70;;;20.20;;
52564;SDS011;38460;53.106;7.004;2024-02-15T01:10:15;44.33;;;21.02;;
52564;SDS011;38460;53.106;7.004;2024-02-15T01:12:41;44.80;;;20.92;;
52564;SDS011;38460;53.106;7.004;2024-02-15T01:15:07;38.53;;;20.17;;
52564;SDS011;38460;53.106;7.004;2024-02-15T01:17:33;41.13;;;20.58;;
52564;SDS011;38460;53.106;7.004;2024-02-15T01:19:58;43.45;;;21.83;;
52564;SDS011;38460;53.106;7.004;2024-02-15T01:22:24;39.25;;;19.92;;
52564;SDS011;38460;53.106;7.004;2024-02-15T01:24:52;38.13;;;19.02;;
52564;SDS011;38460;53.106;7.004;2024-02-15T01:27:18;37.28;;;19.95;;
52564;SDS011;38460;53.106;7.004;2024-02-15T01:29:44;35.83;;;19.88;;
52564;SDS011;38460;53.106;7.004;2024-02-15T01:32:10;39.78;;;19.38;;
52564;SDS011;38460;53.106;7.004;2024-02-15T01:34:36;44.20;;;20.45;;
52564;SDS011;38460;53.106;7.004;2024-02-15T01:37:02;42.13;;;19.23;;
52564;SDS011;38460;53.106;7.004;2024-02-15T01:39:27;38.35;;;18.05;;
52564;SDS011;38460;53.106;7.004;2024-02-15T01:41:53;35.20;;;18.13;;
52564;SDS011;38460;53.106;7.004;2024-02-15T01:44:21;37.58;;;18.98;;
52564;SDS011;38460;53.106;7.004;2024-02-15T01:46:49;31.08;;;16.38;;
52564;SDS011;38460;53.106;7.004;2024-02-15T01:49:19;32.42;;;16.92;;
52564;SDS011;38460;53.106;7.004;2024-02-15T01:51:47;36.88;;;17.83;;
52564;SDS011;38460;53.106;7.004;2024-02-15T01:54:17;30.67;;;15.70;;
52564;SDS011;38460;53.106;7.004;2024-02-15T01:56:44;35.60;;;18.25;;
52564;SDS011;38460;53.106;7.004;2024-02-15T01:59:11;40.17;;;17.23;;
52564;SDS011;38460;53.106;7.004;2024-02-15T02:01:40;29.65;;;15.32;;
52564;SDS011;38460;53.106;7.004;2024-02-15T02:04:07;32.58;;;15.63;;
52564;SDS011;38460;53.106;7.004;2024-02-15T02:06:34;34.10;;;16.10;;
52564;SDS011;38460;53.106;7.004;2024-02-15T02:09:02;30.65;;;15.40;;
52564;SDS011;38460;53.106;7.004;2024-02-15T02:11:28;26.77;;;14.52;;
52564;SDS011;38460;53.106;7.004;2024-02-15T02:13:55;27.45;;;14.60;;
52564;SDS011;38460;53.106;7.004;2024-02-15T02:16:27;26.05;;;14.18;;
52564;SDS011;38460;53.106;7.004;2024-02-15T02:18:57;25.40;;;12.93;;
52564;SDS011;38460;53.106;7.004;2024-02-15T02:21:24;27.70;;;12.93;;
52564;SDS011;38460;53.106;7.004;2024-02-15T02:23:57;24.83;;;13.80;;
52564;SDS011;38460;53.106;7.004;2024-02-15T02:26:24;25.50;;;12.82;;
52564;SDS011;38460;53.106;7.004;2024-02-15T02:28:50;27.38;;;12.45;;
52564;SDS011;38460;53.106;7.004;2024-02-15T02:31:19;26.92;;;12.18;;
52564;SDS011;38460;53.106;7.004;2024-02-15T02:33:51;24.05;;;11.38;;
52564;SDS011;38460;53.106;7.004;2024-02-15T02:36:18;21.90;;;11.15;;
52564;SDS011;38460;53.106;7.004;2024-02-15T02:38:44;24.92;;;11.27;;
52564;SDS011;38460;53.106;7.004;2024-02-15T02:41:14;19.58;;;11.00;;
52564;SDS011;38460;53.106;7.004;2024-02-15T02:43:39;24.65;;;12.00;;
52564;SDS011;38460;53.106;7.004;2024-02-15T02:46:06;25.92;;;11.68;;
52564;SDS011;38460;53.106;7.004;2024-02-15T02:48:32;22.38;;;12.45;;
52564;SDS011;38460;53.106;7.004;2024-02-15T02:50:57;24.38;;;12.38;;
52564;SDS011;38460;53.106;7.004;2024-02-15T02:53:24;28.65;;;12.55;;
52564;SDS011;38460;53.106;7.004;2024-02-15T02:55:51;25.48;;;12.32;;
52564;SDS011;38460;53.106;7.004;2024-02-15T02:58:17;26.48;;;13.05;;
52564;SDS011;38460;53.106;7.004;2024-02-15T03:00:43;28.38;;;13.27;;
52564;SDS011;38460;53.106;7.004;2024-02-15T03:03:08;28.45;;;12.85;;
52564;SDS011;38460;53.106;7.004;2024-02-15T03:05:34;28.48;;;11.82;;
52564;SDS011;38460;53.106;7.004;2024-02-15T03:08:00;27.88;;;12.18;;
52564;SDS011;38460;53.106;7.004;2024-02-15T03:10:26;25.58;;;12.40;;
52564;SDS011;38460;53.106;7.004;2024-02-15T03:12:52;24.73;;;12.10;;
52564;SDS011;38460;53.106;7.004;2024-02-15T03:15:17;26.38;;;12.23;;
52564;SDS011;38460;53.106;7.004;2024-02-15T03:17:45;27.50;;;12.32;;
52564;SDS011;38460;53.106;7.004;2024-02-15T03:20:12;27.02;;;12.45;;
52564;SDS011;38460;53.106;7.004;2024-02-15T03:22:55;24.60;;;12.75;;
52564;SDS011;38460;53.106;7.004;2024-02-15T03:25:23;24.02;;;11.75;;
52564;SDS011;38460;53.106;7.004;2024-02-15T03:27:53;26.05;;;12.02;;
52564;SDS011;38460;53.106;7.004;2024-02-15T03:30:25;29.08;;;11.85;;
52564;SDS011;38460;53.106;7.004;2024-02-15T03:32:52;28.55;;;11.57;;
52564;SDS011;38460;53.106;7.004;2024-02-15T03:35:19;24.40;;;11.60;;
52564;SDS011;38460;53.106;7.004;2024-02-15T03:37:49;26.10;;;11.90;;
52564;SDS011;38460;53.106;7.004;2024-02-15T03:40:16;24.27;;;11.30;;
52564;SDS011;38460;53.106;7.004;2024-02-15T03:42:43;27.00;;;11.82;;
52564;SDS011;38460;53.106;7.004;2024-02-15T03:45:09;26.45;;;11.07;;
52564;SDS011;38460;53.106;7.004;2024-02-15T03:47:36;26.35;;;12.00;;
52564;SDS011;38460;53.106;7.004;2024-02-15T03:50:02;25.30;;;11.30;;
52564;SDS011;38460;53.106;7.004;2024-02-15T03:52:29;23.38;;;11.18;;
52564;SDS011;38460;53.106;7.004;2024-02-15T03:54:56;22.77;;;10.75;;
52564;SDS011;38460;53.106;7.004;2024-02-15T03:57:25;29.77;;;11.30;;
52564;SDS011;38460;53.106;7.004;2024-02-15T03:59:51;22.38;;;11.10;;
52564;SDS011;38460;53.106;7.004;2024-02-15T04:02:19;25.02;;;11.00;;
52564;SDS011;38460;53.106;7.004;2024-02-15T04:04:45;25.60;;;10.27;;
52564;SDS011;38460;53.106;7.004;2024-02-15T04:07:17;25.48;;;11.48;;
52564;SDS011;38460;53.106;7.004;2024-02-15T04:09:44;24.40;;;11.02;;
52564;SDS011;38460;53.106;7.004;2024-02-15T04:12:10;21.05;;;10.65;;
52564;SDS011;38460;53.106;7.004;2024-02-15T04:14:37;24.35;;;11.23;;
52564;SDS011;38460;53.106;7.004;2024-02-15T04:17:06;26.88;;;12.32;;
52564;SDS011;38460;53.106;7.004;2024-02-15T04:19:32;32.20;;;11.90;;
52564;SDS011;38460;53.106;7.004;2024-02-15T04:21:58;22.83;;;12.73;;
52564;SDS011;38460;53.106;7.004;2024-02-15T04:24:26;30.63;;;15.00;;
52564;SDS011;38460;53.106;7.004;2024-02-15T04:26:52;29.92;;;15.63;;
52564;SDS011;38460;53.106;7.004;2024-02-15T04:29:18;31.55;;;15.75;;
52564;SDS011;38460;53.106;7.004;2024-02-15T04:31:45;33.13;;;14.40;;
52564;SDS011;38460;53.106;7.004;2024-02-15T04:34:17;29.17;;;13.35;;
52564;SDS011;38460;53.106;7.004;2024-02-15T04:36:47;26.40;;;12.43;;
52564;SDS011;38460;53.106;7.004;2024-02-15T04:39:19;24.58;;;13.00;;
52564;SDS011;38460;53.106;7.004;2024-02-15T04:41:54;30.77;;;14.10;;
52564;SDS011;38460;53.106;7.004;2024-02-15T04:44:20;25.42;;;13.55;;
52564;SDS011;38460;53.106;7.004;2024-02-15T04:46:47;21.52;;;13.88;;
52564;SDS011;38460;53.106;7.004;2024-02-15T04:49:15;24.92;;;14.07;;
52564;SDS011;38460;53.106;7.004;2024-02-15T04:51:41;30.38;;;16.08;;
52564;SDS011;38460;53.106;7.004;2024-02-15T04:54:07;35.10;;;19.50;;
52564;SDS011;38460;53.106;7.004;2024-02-15T04:56:33;40.92;;;19.65;;
52564;SDS011;38460;53.106;7.004;2024-02-15T04:59:01;40.17;;;21.05;;
52564;SDS011;38460;53.106;7.004;2024-02-15T05:01:27;38.28;;;18.77;;
52564;SDS011;38460;53.106;7.004;2024-02-15T05:03:54;29.15;;;17.08;;
52564;SDS011;38460;53.106;7.004;2024-02-15T05:06:20;30.95;;;18.00;;
52564;SDS011;38460;53.106;7.004;2024-02-15T05:08:46;32.97;;;17.27;;
52564;SDS011;38460;53.106;7.004;2024-02-15T05:11:12;34.67;;;17.02;;
52564;SDS011;38460;53.106;7.004;2024-02-15T05:13:43;32.33;;;17.45;;
52564;SDS011;38460;53.106;7.004;2024-02-15T05:16:12;29.95;;;17.67;;
52564;SDS011;38460;53.106;7.004;2024-02-15T05:18:38;36.88;;;18.85;;
52564;SDS011;38460;53.106;7.004;2024-02-15T05:21:05;33.53;;;17.73;;
52564;SDS011;38460;53.106;7.004;2024-02-15T05:23:38;34.05;;;17.58;;
52564;SDS011;38460;53.106;7.004;2024-02-15T05:26:08;32.00;;;17.40;;
52564;SDS011;38460;53.106;7.004;2024-02-15T05:28:34;33.47;;;17.40;;
52564;SDS011;38460;53.106;7.004;2024-02-15T05:31:13;34.67;;;18.40;;
52564;SDS011;38460;53.106;7.004;2024-02-15T05:33:42;30.95;;;17.15;;
52564;SDS011;38460;53.106;7.004;2024-02-15T05:36:18;29.13;;;17.77;;
52564;SDS011;38460;53.106;7.004;2024-02-15T05:38:45;35.17;;;17.88;;
52564;SDS011;38460;53.106;7.004;2024-02-15T05:41:18;34.22;;;17.80;;
52564;SDS011;38460;53.106;7.004;2024-02-15T05:43:44;33.42;;;18.90;;
52564;SDS011;38460;53.106;7.004;2024-02-15T05:46:11;31.27;;;18.30;;
52564;SDS011;38460;53.106;7.004;2024-02-15T05:48:38;38.10;;;19.75;;
52564;SDS011;38460;53.106;7.004;2024-02-15T05:51:04;34.13;;;19.73;;
52564;SDS011;38460;53.106;7.004;2024-02-15T05:53:31;38.63;;;20.17;;
52564;SDS011;38460;53.106;7.004;2024-02-15T05:56:01;38.20;;;19.50;;
52564;SDS011;38460;53.106;7.004;2024-02-15T05:58:29;34.83;;;20.45;;
52564;SDS011;38460;53.106;7.004;2024-02-15T06:00:56;38.28;;;19.33;;
52564;SDS011;38460;53.106;7.004;2024-02-15T06:03:29;40.30;;;21.80;;
52564;SDS011;38460;53.106;7.004;2024-02-15T06:05:57;33.15;;;18.83;;
52564;SDS011;38460;53.106;7.004;2024-02-15T06:08:26;37.03;;;21.50;;
52564;SDS011;38460;53.106;7.004;2024-02-15T06:10:55;39.25;;;21.40;;
52564;SDS011;38460;53.106;7.004;2024-02-15T06:13:21;38.38;;;21.80;;
52564;SDS011;38460;53.106;7.004;2024-02-15T06:15:48;37.92;;;22.35;;
52564;SDS011;38460;53.106;7.004;2024-02-15T06:18:20;39.92;;;21.60;;
52564;SDS011;38460;53.106;7.004;2024-02-15T06:20:49;41.45;;;22.77;;
52564;SDS011;38460;53.106;7.004;2024-02-15T06:23:19;40.28;;;23.67;;
52564;SDS011;38460;53.106;7.004;2024-02-15T06:25:46;38.10;;;20.73;;
52564;SDS011;38460;53.106;7.004;2024-02-15T06:28:14;41.72;;;23.17;;
52564;SDS011;38460;53.106;7.004;2024-02-15T06:30:59;36.97;;;22.55;;
52564;SDS011;38460;53.106;7.004;2024-02-15T06:33:43;35.38;;;21.10;;
52564;SDS011;38460;53.106;7.004;2024-02-15T06:36:27;38.70;;;22.30;;
52564;SDS011;38460;53.106;7.004;2024-02-15T06:39:11;36.63;;;20.80;;
52564;SDS011;38460;53.106;7.004;2024-02-15T06:41:56;39.05;;;21.42;;
52564;SDS011;38460;53.106;7.004;2024-02-15T06:44:22;35.05;;;21.30;;
52564;SDS011;38460;53.106;7.004;2024-02-15T06:46:49;37.10;;;21.58;;
52564;SDS011;38460;53.106;7.004;2024-02-15T06:49:15;42.17;;;22.42;;
52564;SDS011;38460;53.106;7.004;2024-02-15T06:51:41;36.40;;;20.90;;
52564;SDS011;38460;53.106;7.004;2024-02-15T06:54:08;36.85;;;20.75;;
52564;SDS011;38460;53.106;7.004;2024-02-15T06:56:38;38.50;;;21.42;;
52564;SDS011;38460;53.106;7.004;2024-02-15T06:59:04;38.65;;;22.38;;
52564;SDS011;38460;53.106;7.004;2024-02-15T07:01:31;34.03;;;20.45;;
52564;SDS011;38460;53.106;7.004;2024-02-15T07:03:59;35.35;;;21.23;;
52564;SDS011;38460;53.106;7.004;2024-02-15T07:06:25;33.28;;;21.17;;
52564;SDS011;38460;53.106;7.004;2024-02-15T07:08:53;37.25;;;21.58;;
52564;SDS011;38460;53.106;7.004;2024-02-15T07:11:21;37.95;;;20.77;;
52564;SDS011;38460;53.106;7.004;2024-02-15T07:13:47;34.35;;;20.77;;
52564;SDS011;38460;53.106;7.004;2024-02-15T07:16:13;37.30;;;20.20;;
52564;SDS011;38460;53.106;7.004;2024-02-15T07:18:40;37.15;;;19.88;;
52564;SDS011;38460;53.106;7.004;2024-02-15T07:21:06;37.78;;;20.70;;
52564;SDS011;38460;53.106;7.004;2024-02-15T07:23:38;30.48;;;19.33;;
52564;SDS011;38460;53.106;7.004;2024-02-15T07:26:07;34.15;;;19.40;;
52564;SDS011;38460;53.106;7.004;2024-02-15T07:28:33;34.28;;;20.35;;
52564;SDS011;38460;53.106;7.004;2024-02-15T07:31:02;30.45;;;18.17;;
52564;SDS011;38460;53.106;7.004;2024-02-15T07:33:28;30.80;;;18.85;;
52564;SDS011;38460;53.106;7.004;2024-02-15T07:35:54;29.95;;;18.27;;
52564;SDS011;38460;53.106;7.004;2024-02-15T07:38:22;36.67;;;19.35;;
52564;SDS011;38460;53.106;7.004;2024-02-15T07:40:48;33.72;;;19.60;;
52564;SDS011;38460;53.106;7.004;2024-02-15T07:43:14;32.78;;;19.58;;
52564;SDS011;38460;53.106;7.004;2024-02-15T07:45:41;34.10;;;19.52;;
52564;SDS011;38460;53.106;7.004;2024-02-15T07:48:07;30.73;;;18.85;;
52564;SDS011;38460;53.106;7.004;2024-02-15T07:50:33;29.95;;;17.85;;
52564;SDS011;38460;53.106;7.004;2024-02-15T07:52:59;29.15;;;17.58;;
52564;SDS011;38460;53.106;7.004;2024-02-15T07:55:24;30.17;;;17.88;;
52564;SDS011;38460;53.106;7.004;2024-02-15T07:57:50;29.83;;;17.85;;
52564;SDS011;38460;53.106;7.004;2024-02-15T08:00:18;29.73;;;17.20;;
52564;SDS011;38460;53.106;7.004;2024-02-15T08:02:44;30.02;;;17.42;;
52564;SDS011;38460;53.106;7.004;2024-02-15T08:05:11;29.02;;;16.75;;
52564;SDS011;38460;53.106;7.004;2024-02-15T08:07:41;32.15;;;18.20;;
52564;SDS011;38460;53.106;7.004;2024-02-15T08:10:09;29.42;;;16.77;;
52564;SDS011;38460;53.106;7.004;2024-02-15T08:12:44;30.00;;;16.85;;
52564;SDS011;38460;53.106;7.004;2024-02-15T08:15:11;26.73;;;15.88;;
52564;SDS011;38460;53.106;7.004;2024-02-15T08:17:41;27.70;;;17.23;;
52564;SDS011;38460;53.106;7.004;2024-02-15T08:20:08;28.10;;;17.38;;
52564;SDS011;38460;53.106;7.004;2024-02-15T08:22:36;29.85;;;17.02;;
52564;SDS011;38460;53.106;7.004;2024-02-15T08:25:08;33.90;;;17.23;;
52564;SDS011;38460;53.106;7.004;2024-02-15T08:27:39;29.30;;;17.15;;
52564;SDS011;38460;53.106;7.004;2024-02-15T08:30:08;26.90;;;16.38;;
52564;SDS011;38460;53.106;7.004;2024-02-15T08:32:38;28.95;;;16.25;;
52564;SDS011;38460;53.106;7.004;2024-02-15T08:35:08;26.25;;;16.75;;
52564;SDS011;38460;53.106;7.004;2024-02-15T08:37:35;29.55;;;17.08;;
52564;SDS011;38460;53.106;7.004;2024-02-15T08:40:03;28.30;;;16.88;;
52564;SDS011;38460;53.106;7.004;2024-02-15T08:42:42;25.92;;;15.40;;
52564;SDS011;38460;53.106;7.004;2024-02-15T08:45:09;23.30;;;15.43;;
52564;SDS011;38460;53.106;7.004;2024-02-15T08:47:39;25.60;;;15.75;;
52564;SDS011;38460;53.106;7.004;2024-02-15T08:50:07;25.67;;;15.02;;
52564;SDS011;38460;53.106;7.004;2024-02-15T08:52:39;21.42;;;14.18;;
52564;SDS011;38460;53.106;7.004;2024-02-15T08:55:09;22.50;;;14.52;;
52564;SDS011;38460;53.106;7.004;2024-02-15T08:57:36;26.10;;;14.00;;
52564;SDS011;38460;53.106;7.004;2024-02-15T09:00:06;22.73;;;14.07;;
52564;SDS011;38460;53.106;7.004;2024-02-15T09:02:45;24.95;;;13.90;;
52564;SDS011;38460;53.106;7.004;2024-02-15T09:05:12;21.60;;;13.95;;
52564;SDS011;38460;53.106;7.004;2024-02-15T09:07:42;19.98;;;14.02;;
52564;SDS011;38460;53.106;7.004;2024-02-15T09:10:12;24.60;;;14.60;;
52564;SDS011;38460;53.106;7.004;2024-02-15T09:12:42;22.45;;;14.07;;
52564;SDS011;38460;53.106;7.004;2024-02-15T09:15:10;24.92;;;14.38;;
52564;SDS011;38460;53.106;7.004;2024-02-15T09:17:36;23.42;;;13.77;;
52564;SDS011;38460;53.106;7.004;2024-02-15T09:20:09;23.23;;;13.52;;
52564;SDS011;38460;53.106;7.004;2024-02-15T09:22:49;23.40;;;15.32;;
52564;SDS011;38460;53.106;7.004;2024-02-15T09:25:19;29.20;;;14.57;;
52564;SDS011;38460;53.106;7.004;2024-02-15T09:27:49;22.48;;;14.95;;
52564;SDS011;38460;53.106;7.004;2024-02-15T09:30:16;26.70;;;15.23;;
52564;SDS011;38460;53.106;7.004;2024-02-15T09:32:42;25.08;;;15.25;;
52564;SDS011;38460;53.106;7.004;2024-02-15T09:35:09;24.23;;;13.93;;
52564;SDS011;38460;53.106;7.004;2024-02-15T09:37:37;25.55;;;15.27;;
52564;SDS011;38460;53.106;7.004;2024-02-15T09:40:12;26.05;;;15.05;;
52564;SDS011;38460;53.106;7.004;2024-02-15T09:42:40;20.95;;;14.40;;
52564;SDS011;38460;53.106;7.004;2024-02-15T09:45:07;23.17;;;13.95;;
52564;SDS011;38460;53.106;7.004;2024-02-15T09:47:38;22.80;;;14.60;;
52564;SDS011;38460;53.106;7.004;2024-02-15T09:50:07;22.10;;;14.27;;
52564;SDS011;38460;53.106;7.004;2024-02-15T09:52:36;22.73;;;14.45;;
52564;SDS011;38460;53.106;7.004;2024-02-15T09:55:05;23.70;;;14.63;;
52564;SDS011;38460;53.106;7.004;2024-02-15T09:57:38;25.58;;;14.63;;
52564;SDS011;38460;53.106;7.004;2024-02-15T10:00:12;22.92;;;14.50;;
52564;SDS011;38460;53.106;7.004;2024-02-15T10:02:42;22.60;;;14.07;;
52564;SDS011;38460;53.106;7.004;2024-02-15T10:05:18;23.05;;;13.38;;
52564;SDS011;38460;53.106;7.004;2024-02-15T10:07:45;23.83;;;13.63;;
52564;SDS011;38460;53.106;7.004;2024-02-15T10:12:41;19.33;;;12.27;;
52564;SDS011;38460;53.106;7.004;2024-02-15T10:15:08;21.33;;;12.80;;
52564;SDS011;38460;53.106;7.004;2024-02-15T10:17:35;21.90;;;13.43;;
52564;SDS011;38460;53.106;7.004;2024-02-15T10:20:05;19.05;;;12.45;;
52564;SDS011;38460;53.106;7.004;2024-02-15T10:22:31;20.13;;;12.85;;
52564;SDS011;38460;53.106;7.004;2024-02-15T10:25:13;23.02;;;12.63;;
52564;SDS011;38460;53.106;7.004;2024-02-15T10:27:40;20.33;;;11.82;;
52564;SDS011;38460;53.106;7.004;2024-02-15T10:30:16;20.10;;;12.40;;
52564;SDS011;38460;53.106;7.004;2024-02-15T10:32:46;19.30;;;12.02;;
52564;SDS011;38460;53.106;7.004;2024-02-15T10:35:20;17.52;;;11.05;;
52564;SDS011;38460;53.106;7.004;2024-02-15T10:37:47;17.13;;;10.85;;
52564;SDS011;38460;53.106;7.004;2024-02-15T10:40:22;16.17;;;10.45;;
52564;SDS011;38460;53.106;7.004;2024-02-15T10:42:48;16.48;;;10.95;;
52564;SDS011;38460;53.106;7.004;2024-02-15T10:45:16;15.05;;;10.65;;
52564;SDS011;38460;53.106;7.004;2024-02-15T10:47:46;12.80;;;9.43;;
52564;SDS011;38460;53.106;7.004;2024-02-15T10:52:44;15.07;;;9.98;;
52564;SDS011;38460;53.106;7.004;2024-02-15T10:55:21;15.95;;;10.68;;
52564;SDS011;38460;53.106;7.004;2024-02-15T10:57:59;12.75;;;9.45;;
52564;SDS011;38460;53.106;7.004;2024-02-15T11:03:01;14.80;;;8.57;;
52564;SDS011;38460;53.106;7.004;2024-02-15T11:05:33;15.27;;;8.68;;
52564;SDS011;38460;53.106;7.004;2024-02-15T11:08:07;12.33;;;8.27;;
52564;SDS011;38460;53.106;7.004;2024-02-15T11:10:35;13.52;;;9.00;;
52564;SDS011;38460;53.106;7.004;2024-02-15T11:13:03;12.70;;;8.00;;
52564;SDS011;38460;53.106;7.004;2024-02-15T11:18:04;12.40;;;7.72;;
52564;SDS011;38460;53.106;7.004;2024-02-15T11:22:58;9.50;;;7.18;;
52564;SDS011;38460;53.106;7.004;2024-02-15T11:25:39;8.55;;;6.55;;
52564;SDS011;38460;53.106;7.004;2024-02-15T11:30:53;9.15;;;6.82;;
52564;SDS011;38460;53.106;7.004;2024-02-15T11:33:27;7.93;;;6.50;;
52564;SDS011;38460;53.106;7.004;2024-02-15T11:36:03;8.43;;;6.68;;
52564;SDS011;38460;53.106;7.004;2024-02-15T11:38:30;11.35;;;6.22;;
52564;SDS011;38460;53.106;7.004;2024-02-15T11:46:19;7.57;;;5.65;;
52564;SDS011;38460;53.106;7.004;2024-02-15T11:48:46;8.55;;;6.13;;
52564;SDS011;38460;53.106;7.004;2024-02-15T11:51:25;7.30;;;5.25;;
52564;SDS011;38460;53.106;7.004;2024-02-15T11:54:10;8.30;;;5.97;;
52564;SDS011;38460;53.106;7.004;2024-02-15T12:01:43;7.28;;;4.93;;
52564;SDS011;38460;53.106;7.004;2024-02-15T12:04:29;7.60;;;5.28;;
52564;SDS011;38460;53.106;7.004;2024-02-15T12:07:14;7.70;;;5.72;;
52564;SDS011;38460;53.106;7.004;2024-02-15T12:09:59;6.57;;;4.93;;
52564;SDS011;38460;53.106;7.004;2024-02-15T12:12:51;11.18;;;7.00;;
52564;SDS011;38460;53.106;7.004;2024-02-15T12:15:37;6.63;;;5.28;;
52564;SDS011;38460;53.106;7.004;2024-02-15T12:18:21;7.50;;;5.00;;
52564;SDS011;38460;53.106;7.004;2024-02-15T12:21:06;5.13;;;3.65;;
52564;SDS011;38460;53.106;7.004;2024-02-15T12:23:35;6.05;;;4.50;;
52564;SDS011;38460;53.106;7.004;2024-02-15T12:26:06;7.03;;;5.45;;
52564;SDS011;38460;53.106;7.004;2024-02-15T12:28:33;5.18;;;3.83;;
52564;SDS011;38460;53.106;7.004;2024-02-15T12:31:00;4.93;;;3.40;;
52564;SDS011;38460;53.106;7.004;2024-02-15T12:33:27;5.15;;;3.00;;
52564;SDS011;38460;53.106;7.004;2024-02-15T12:36:03;5.25;;;3.08;;
52564;SDS011;38460;53.106;7.004;2024-02-15T12:38:33;5.00;;;2.90;;
52564;SDS011;38460;53.106;7.004;2024-02-15T12:41:02;5.03;;;3.80;;
52564;SDS011;38460;53.106;7.004;2024-02-15T12:43:54;4.35;;;3.05;;
52564;SDS011;38460;53.106;7.004;2024-02-15T12:46:22;5.43;;;4.20;;
52564;SDS011;38460;53.106;7.004;2024-02-15T12:48:48;5.35;;;3.97;;
52564;SDS011;38460;53.106;7.004;2024-02-15T12:51:14;5.13;;;4.00;;
52564;SDS011;38460;53.106;7.004;2024-02-15T12:53:41;5.65;;;2.92;;
52564;SDS011;38460;53.106;7.004;2024-02-15T12:56:07;3.58;;;3.10;;
52564;SDS011;38460;53.106;7.004;2024-02-15T12:58:36;4.00;;;2.20;;
52564;SDS011;38460;53.106;7.004;2024-02-15T13:01:04;2.90;;;2.55;;
52564;SDS011;38460;53.106;7.004;2024-02-15T13:03:30;4.07;;;2.45;;
52564;SDS011;38460;53.106;7.004;2024-02-15T13:05:55;4.68;;;3.30;;
52564;SDS011;38460;53.106;7.004;2024-02-15T13:08:22;5.72;;;3.88;;
52564;SDS011;38460;53.106;7.004;2024-02-15T13:10:48;4.68;;;3.60;;
52564;SDS011;38460;53.106;7.004;2024-02-15T13:13:15;4.10;;;3.45;;
52564;SDS011;38460;53.106;7.004;2024-02-15T13:15:41;4.20;;;3.35;;
52564;SDS011;38460;53.106;7.004;2024-02-15T13:18:07;5.03;;;3.38;;
52564;SDS011;38460;53.106;7.004;2024-02-15T13:20:39;4.13;;;3.23;;
52564;SDS011;38460;53.106;7.004;2024-02-15T13:23:05;6.43;;;3.25;;
52564;SDS011;38460;53.106;7.004;2024-02-15T13:25:40;4.15;;;3.08;;
52564;SDS011;38460;53.106;7.004;2024-02-15T13:28:08;4.32;;;3.60;;
52564;SDS011;38460;53.106;7.004;2024-02-15T13:30:38;5.07;;;3.50;;
52564;SDS011;38460;53.106;7.004;2024-02-15T13:33:04;5.82;;;3.97;;
52564;SDS011;38460;53.106;7.004;2024-02-15T13:35:31;5.85;;;3.72;;
52564;SDS011;38460;53.106;7.004;2024-02-15T13:37:58;4.63;;;3.90;;
52564;SDS011;38460;53.106;7.004;2024-02-15T13:40:24;6.55;;;4.32;;
52564;SDS011;38460;53.106;7.004;2024-02-15T13:42:52;7.22;;;4.50;;
52564;SDS011;38460;53.106;7.004;2024-02-15T13:45:29;7.15;;;5.38;;
52564;SDS011;38460;53.106;7.004;2024-02-15T13:48:04;6.05;;;4.22;;
52564;SDS011;38460;53.106;7.004;2024-02-15T13:50:32;6.57;;;4.85;;
52564;SDS011;38460;53.106;7.004;2024-02-15T13:52:58;5.65;;;4.65;;
52564;SDS011;38460;53.106;7.004;2024-02-15T13:55:25;5.10;;;4.13;;
52564;SDS011;38460;53.106;7.004;2024-02-15T13:57:51;5.32;;;4.20;;
52564;SDS011;38460;53.106;7.004;2024-02-15T14:00:18;7.68;;;4.97;;
52564;SDS011;38460;53.106;7.004;2024-02-15T14:02:51;6.85;;;5.55;;
52564;SDS011;38460;53.106;7.004;2024-02-15T14:05:18;6.82;;;5.10;;
52564;SDS011;38460;53.106;7.004;2024-02-15T14:07:46;6.10;;;4.90;;
52564;SDS011;38460;53.106;7.004;2024-02-15T14:10:13;5.55;;;4.95;;
52564;SDS011;38460;53.106;7.004;2024-02-15T14:12:39;8.57;;;5.68;;
52564;SDS011;38460;53.106;7.004;2024-02-15T14:15:05;8.50;;;6.18;;
52564;SDS011;38460;53.106;7.004;2024-02-15T14:17:31;7.43;;;6.10;;
52564;SDS011;38460;53.106;7.004;2024-02-15T14:19:57;10.80;;;6.10;;
52564;SDS011;38460;53.106;7.004;2024-02-15T14:22:24;8.57;;;6.10;;
52564;SDS011;38460;53.106;7.004;2024-02-15T14:24:53;9.73;;;6.82;;
52564;SDS011;38460;53.106;7.004;2024-02-15T14:27:19;9.90;;;6.05;;
52564;SDS011;38460;53.106;7.004;2024-02-15T14:29:45;8.57;;;6.22;;
52564;SDS011;38460;53.106;7.004;2024-02-15T14:32:30;7.57;;;6.15;;
52564;SDS011;38460;53.106;7.004;2024-02-15T14:35:15;8.00;;;6.05;;
52564;SDS011;38460;53.106;7.004;2024-02-15T14:37:42;8.80;;;6.03;;
52564;SDS011;38460;53.106;7.004;2024-02-15T14:40:09;8.30;;;7.10;;
52564;SDS011;38460;53.106;7.004;2024-02-15T14:42:39;15.82;;;7.75;;
52564;SDS011;38460;53.106;7.004;2024-02-15T14:45:08;10.75;;;6.75;;
52564;SDS011;38460;53.106;7.004;2024-02-15T14:47:35;10.45;;;7.22;;
52564;SDS011;38460;53.106;7.004;2024-02-15T14:50:01;11.48;;;6.93;;
52564;SDS011;38460;53.106;7.004;2024-02-15T14:52:27;10.93;;;7.68;;
52564;SDS011;38460;53.106;7.004;2024-02-15T14:54:53;10.00;;;7.57;;
52564;SDS011;38460;53.106;7.004;2024-02-15T14:57:19;9.35;;;7.00;;
52564;SDS011;38460;53.106;7.004;2024-02-15T14:59:45;10.20;;;7.35;;
52564;SDS011;38460;53.106;7.004;2024-02-15T15:02:11;12.35;;;8.20;;
52564;SDS011;38460;53.106;7.004;2024-02-15T15:04:37;10.45;;;6.93;;